createdAt,value
2023-05-23T06:09:19.879Z,60.20
2023-05-23T06:11:47.161Z,54.75
2023-05-23T06:14:14.286Z,52.63
2023-05-23T06:16:44.573Z,51.36
2023-05-23T06:19:11.638Z,50.60
2023-05-23T06:21:39.925Z,49.48
2023-05-23T06:24:09.101Z,50.55
2023-05-23T06:26:37.569Z,50.10
2023-05-23T06:29:04.258Z,49.55
2023-05-23T06:31:31.059Z,49.39
2023-05-23T06:33:57.929Z,49.42
2023-05-23T06:36:24.535Z,50.04
2023-05-23T06:38:51.140Z,49.49
2023-05-23T06:41:17.764Z,49.80
2023-05-23T06:43:44.349Z,49.46
2023-05-23T06:46:31.606Z,49.72
2023-05-23T06:49:13.281Z,49.52
2023-05-23T06:51:41.815Z,49.20
2023-05-23T06:54:08.644Z,48.90
2023-05-23T06:56:35.822Z,49.32
2023-05-23T06:59:03.851Z,49.68
2023-05-23T07:01:30.971Z,48.68
2023-05-23T07:03:57.590Z,49.41
2023-05-23T07:06:24.510Z,49.54
2023-05-23T07:08:51.283Z,49.02
2023-05-23T07:11:17.941Z,48.60
2023-05-23T07:13:50.299Z,48.01
2023-05-23T07:16:22.696Z,48.88
2023-05-23T07:19:01.792Z,48.28
2023-05-23T07:21:28.878Z,48.45
2023-05-23T07:23:55.986Z,48.41
2023-05-23T07:26:22.980Z,48.54
2023-05-23T07:28:53.933Z,48.56
2023-05-23T07:31:20.541Z,48.53
2023-05-23T07:33:47.183Z,49.12
2023-05-23T07:36:22.301Z,48.74
2023-05-23T07:38:49.250Z,48.26
2023-05-23T07:41:15.977Z,47.70
2023-05-23T07:43:42.726Z,47.54
2023-05-23T07:46:09.509Z,49.03
2023-05-23T07:48:37.534Z,50.03
2023-05-23T07:51:04.337Z,48.80
2023-05-23T07:53:31.195Z,49.71
2023-05-23T07:55:58.357Z,48.33
2023-05-23T07:58:28.030Z,48.67
2023-05-23T08:00:54.660Z,48.57
2023-05-23T08:03:40.076Z,48.41
2023-05-23T08:06:14.211Z,48.06
2023-05-23T08:08:41.193Z,48.58
2023-05-23T08:11:08.475Z,47.96
2023-05-23T08:13:40.957Z,48.70
2023-05-23T08:16:28.012Z,48.83
2023-05-23T08:18:54.927Z,49.23
2023-05-23T08:21:21.591Z,49.53
2023-05-23T08:23:48.514Z,49.40
2023-05-23T08:26:15.482Z,50.19
2023-05-23T08:28:42.133Z,49.08
2023-05-23T08:31:08.717Z,48.41
2023-05-23T08:33:35.458Z,47.98
2023-05-23T08:36:02.056Z,48.12
2023-05-23T08:38:29.078Z,47.37
2023-05-23T08:41:31.356Z,47.91
2023-05-23T08:44:05.194Z,48.88
2023-05-23T08:46:49.878Z,48.82
2023-05-23T08:49:28.205Z,48.62
2023-05-23T08:52:01.466Z,48.65
2023-05-23T08:54:29.508Z,48.53
2023-05-23T08:56:56.162Z,48.55
2023-05-23T08:59:23.694Z,47.93
2023-05-23T09:01:52.129Z,48.00
2023-05-23T09:04:18.879Z,47.78
2023-05-23T09:06:59.806Z,47.78
2023-05-23T09:09:26.463Z,47.77
2023-05-23T09:11:55.349Z,46.88
2023-05-23T09:14:22.531Z,47.48
2023-05-23T09:16:51.571Z,46.86
2023-05-23T09:19:22.230Z,45.94
2023-05-23T09:21:55.499Z,46.25
2023-05-23T09:24:34.923Z,47.05
2023-05-23T09:27:03.005Z,46.75
2023-05-23T09:29:30.720Z,46.87
2023-05-23T09:32:11.074Z,47.08
2023-05-23T09:34:59.193Z,46.92
2023-05-23T09:37:34.710Z,46.75
2023-05-23T09:40:07.157Z,47.05
2023-05-23T09:42:34.341Z,46.70
2023-05-23T09:45:04.009Z,46.98
2023-05-23T09:47:31.816Z,47.21
2023-05-23T09:49:58.759Z,47.90
2023-05-23T09:52:26.312Z,48.06
2023-05-23T09:54:53.934Z,48.56
2023-05-23T09:57:22.972Z,48.34
2023-05-23T09:59:54.433Z,48.41
2023-05-23T10:02:53.888Z,48.34
2023-05-23T10:05:50.218Z,48.53
2023-05-23T10:08:31.214Z,48.52
2023-05-23T10:10:57.713Z,47.72
2023-05-23T10:13:28.832Z,47.58
2023-05-23T10:16:07.029Z,47.59
2023-05-23T10:18:42.335Z,47.74
2023-05-23T10:21:15.576Z,47.91
2023-05-23T10:23:42.640Z,48.50
2023-05-23T10:26:10.561Z,48.49
2023-05-23T10:28:37.540Z,48.71
2023-05-23T10:31:04.322Z,48.82
2023-05-23T10:33:40.723Z,50.08
2023-05-23T10:36:17.769Z,51.54
2023-05-23T10:38:51.270Z,52.16
2023-05-23T10:41:36.744Z,53.07
2023-05-23T10:44:20.406Z,53.17
2023-05-23T10:47:04.517Z,53.58
2023-05-23T10:49:37.884Z,53.69
2023-05-23T10:52:05.049Z,53.69
2023-05-23T10:54:56.134Z,52.34
2023-05-23T10:57:29.505Z,51.57
2023-05-23T10:59:56.494Z,51.38
2023-05-23T11:02:28.047Z,51.20
2023-05-23T11:05:22.191Z,50.06
2023-05-23T11:08:14.509Z,48.03
2023-05-23T11:10:56.055Z,47.71
2023-05-23T11:13:23.451Z,46.55
2023-05-23T11:15:50.698Z,46.11
2023-05-23T11:18:24.694Z,46.78
2023-05-23T11:20:54.391Z,45.60
2023-05-23T11:23:22.058Z,43.54
2023-05-23T11:25:50.786Z,44.20
2023-05-23T11:28:18.091Z,42.47
2023-05-23T11:30:48.105Z,41.74
2023-05-23T11:33:16.386Z,41.97
2023-05-23T11:35:48.161Z,42.23
2023-05-23T11:38:16.645Z,43.44
2023-05-23T11:40:46.244Z,41.81
2023-05-23T11:43:17.814Z,41.85
2023-05-23T11:45:46.866Z,40.63
2023-05-23T11:48:16.621Z,40.68
2023-05-23T11:50:54.106Z,40.16
2023-05-23T11:53:25.065Z,39.63
2023-05-23T11:55:58.425Z,39.31
2023-05-23T11:58:36.043Z,38.94
2023-05-23T12:01:13.509Z,39.94
2023-05-23T12:03:47.746Z,38.85
2023-05-23T12:06:21.804Z,39.03
2023-05-23T12:08:48.391Z,39.38
2023-05-23T12:11:15.218Z,39.05
2023-05-23T12:13:42.345Z,38.45
2023-05-23T12:16:09.274Z,38.68
2023-05-23T12:18:37.887Z,38.93
2023-05-23T12:21:07.950Z,38.79
2023-05-23T12:23:35.765Z,38.95
2023-05-23T12:26:06.959Z,38.03
2023-05-23T12:28:45.128Z,37.74
2023-05-23T12:31:33.316Z,36.74
2023-05-23T12:33:59.915Z,37.06
2023-05-23T12:36:29.009Z,36.96
2023-05-23T12:39:02.885Z,37.60
2023-05-23T12:41:29.882Z,39.78
2023-05-23T12:43:56.974Z,38.78
2023-05-23T12:46:25.400Z,38.65
2023-05-23T12:48:53.125Z,39.08
2023-05-23T12:51:20.980Z,39.31
2023-05-23T12:53:48.362Z,40.29
2023-05-23T12:56:14.965Z,41.04
2023-05-23T12:58:41.872Z,40.17
2023-05-23T13:01:09.113Z,40.81
2023-05-23T13:03:36.600Z,40.51
2023-05-23T13:06:03.271Z,41.33
2023-05-23T13:08:29.853Z,40.92
2023-05-23T13:10:57.181Z,39.49
2023-05-23T13:13:23.910Z,39.04
2023-05-23T13:15:51.646Z,38.53
2023-05-23T13:18:18.688Z,38.20
2023-05-23T13:20:46.284Z,38.71
2023-05-23T13:23:12.966Z,37.90
2023-05-23T13:25:39.693Z,37.41
2023-05-23T13:28:06.620Z,37.71
2023-05-23T13:30:33.588Z,38.68
2023-05-23T13:33:00.445Z,38.98
2023-05-23T13:35:27.079Z,38.34
2023-05-23T13:37:53.717Z,38.40
2023-05-23T13:40:21.619Z,38.39
2023-05-23T13:42:51.042Z,36.40
2023-05-23T13:45:18.423Z,36.09
2023-05-23T13:47:46.281Z,35.99
2023-05-23T13:50:12.911Z,36.01
2023-05-23T13:52:42.167Z,36.06
2023-05-23T13:55:11.054Z,37.53
2023-05-23T13:57:37.708Z,36.86
2023-05-23T14:00:05.313Z,36.68
2023-05-23T14:02:32.141Z,36.55
2023-05-23T14:04:58.937Z,37.35
2023-05-23T14:07:25.621Z,37.46
2023-05-23T14:09:52.257Z,37.25
2023-05-23T14:12:25.044Z,35.84
